In Rescue
 
Open Full Screen Window  High Contrast Mode
Wind Gusting 00 knots
04
August 09, 2020 7:14 PM EDT
Weather Information
Wind Direction
  170 °
Wind Speed
  04 kt (5 mph)
Wind Gust
  00 kt (0 mph)
Altimeter
30.10 in
Visibility
10 SM
Temperature
28° C
82° F
Dewpoint
19° C
66° F
Humidity
58%
1hr Rain Fall
00.00 in.
24hr Rain Fall
00.00 in.
Sky Condition
Clear
VFR

METAR K4I3 092314Z AUTO 17004KT 10SM CLR 28/19 A3010 RMK AO2

FAA Disclaimer: The data displayed is for advisory purposes only and is not to be used for flight planning or operations.